Hauptseite
METAR-TAF:

METAR-TAF

Flughäfen :

London Biggin Hill Airport

London Biggin Hill, England

Breite: 51-19N, Länge: 000-02E, Höhe: 183 m

Beobachtung

Neuester Wetterbericht von vor 25 Minuten, um 18:50 UTC
Wind 10 kt aus Nordost
Temperatur 5°C
Luftfeuchtigkeit 93%
Luftdruck 1025 hPa
Sichtweite 10 km oder mehr
keine Wolken unter 1500 m und keine Kumulonimbus oder Gewitterwolken

METAR: EGKB 181850Z 04010KT CAVOK 05/04 Q1025

Zeit: 19:15 (19:15 UTC)

Prognose

Neuester Wetterbericht von vor 2 Stunden und 14 Minuten, um 17:01 UTC
Gültige Prognose vom 18 um 18 UTC bis 18 um 22 UTC
Wind 13 kt aus Ost/Nordost
Sichtweite 10 km oder mehr
keine Wolken unter 1500 m und keine Kumulonimbus oder Gewitterwolken
Wahrscheinlichkeit 30% :
Zeitweise
vom 18 um 18 UTC bis 18 um 22 UTC
Wind 15 kt aus Ost, Böen bis zu 25 kt
Sichtweite: 8000 m

TAF: EGKB 181701Z 1818/1822 06013KT CAVOK PROB30 TEMPO 1818/1822 08015G25KT 8000

Wetterbeobachtungen und Prognosen von mehr als 4000 Flughäfen (METAR und TAF Bericht).

Die verfügbaren Stationen werden durch gelbe und rote Markierungen auf der Karte dargestellt.

Führen Sie die Maus auf sie, um den Namen der Station zu sehen.

Darauf klicken, um die Beobachtung von Wetterbeobachtungen und Prognosen zu sehen.

Um die Karte zu ändern : klicken Sie auf den grünen Tasten mit einem schwarzen Kreuz Zum Vergrößern, auf den grünen Button mit einem Gedankenstrich zu verkleinern, oder auf die grünen Pfeile für benachbarte Karten.


METAR-TAF: